<?xml version="1.0" encoding="UTF-8" standalone="no" ?>
<gpx xmlns="http://www.topografix.com/GPX/1/1" xmlns:xsi="http://www.w3.org/2001/XMLSchema-instance" xsi:schemaLocation="http://www.topografix.com/GPX/1/1 http://www.topografix.com/GPX/1/1/gpx.xsd" version="1.1" creator="VisuGPX - https://www.visugpx.com">
  <metadata>
    <name>CheixenRetz_PierreTremblanteMartiniere_11-20km</name>
    <desc><![CDATA[gnerando idor: 7901511_12815416]]></desc>
  </metadata>
  <trk>
    <name><![CDATA[CheixEnRetz_PierreTremblante_11km-7901511]]></name>
    <extensions>
      <line xmlns="http://www.topografix.com/GPX/gpx_style/0/2">
        <color>0000FF</color>
        <width>4</width>
      </line>
    </extensions>
    <trkseg>
      <trkpt lat="47.18119" lon="-1.81592">
        <ele>11</ele>
        <time>2023-11-01T12:55:06Z</time>
      </trkpt>
      <trkpt lat="47.18046" lon="-1.81635">
        <ele>5</ele>
        <time>2023-11-01T12:56:51Z</time>
      </trkpt>
      <trkpt lat="47.18067" lon="-1.81832">
        <ele>2</ele>
        <time>2023-11-01T12:59:52Z</time>
      </trkpt>
      <trkpt lat="47.18064" lon="-1.82235">
        <ele>1.5</ele>
        <time>2023-11-01T13:05:57Z</time>
      </trkpt>
      <trkpt lat="47.18169" lon="-1.82265">
        <ele>2</ele>
        <time>2023-11-01T13:08:20Z</time>
      </trkpt>
      <trkpt lat="47.18239" lon="-1.82205">
        <ele>3</ele>
        <time>2023-11-01T13:10:08Z</time>
      </trkpt>
      <trkpt lat="47.18326" lon="-1.82257">
        <ele>3</ele>
        <time>2023-11-01T13:12:14Z</time>
      </trkpt>
      <trkpt lat="47.18326" lon="-1.8233">
        <ele>4</ele>
        <time>2023-11-01T13:13:20Z</time>
      </trkpt>
      <trkpt lat="47.18262" lon="-1.8239">
        <ele>3</ele>
        <time>2023-11-01T13:15:01Z</time>
      </trkpt>
      <trkpt lat="47.18309" lon="-1.82476">
        <ele>4</ele>
        <time>2023-11-01T13:16:41Z</time>
      </trkpt>
      <trkpt lat="47.18259" lon="-1.826">
        <ele>3</ele>
        <time>2023-11-01T13:18:52Z</time>
      </trkpt>
      <trkpt lat="47.18338" lon="-1.82888">
        <ele>5</ele>
        <time>2023-11-01T13:23:34Z</time>
      </trkpt>
      <trkpt lat="47.18268" lon="-1.82982">
        <ele>3</ele>
        <time>2023-11-01T13:25:40Z</time>
      </trkpt>
      <trkpt lat="47.18154" lon="-1.83004">
        <ele>3</ele>
        <time>2023-11-01T13:28:13Z</time>
      </trkpt>
      <trkpt lat="47.18143" lon="-1.83145">
        <ele>2</ele>
        <time>2023-11-01T13:30:22Z</time>
      </trkpt>
      <trkpt lat="47.18221" lon="-1.83351">
        <ele>3</ele>
        <time>2023-11-01T13:33:56Z</time>
      </trkpt>
      <trkpt lat="47.18318" lon="-1.8342">
        <ele>5</ele>
        <time>2023-11-01T13:36:20Z</time>
      </trkpt>
      <trkpt lat="47.18431" lon="-1.83407">
        <ele>5</ele>
        <time>2023-11-01T13:38:51Z</time>
      </trkpt>
      <trkpt lat="47.18329" lon="-1.83587">
        <ele>3</ele>
        <time>2023-11-01T13:42:24Z</time>
      </trkpt>
      <trkpt lat="47.1837" lon="-1.83776">
        <ele>2</ele>
        <time>2023-11-01T13:45:24Z</time>
      </trkpt>
      <trkpt lat="47.18484" lon="-1.83905">
        <ele>4</ele>
        <time>2023-11-01T13:48:35Z</time>
      </trkpt>
      <trkpt lat="47.18583" lon="-1.83832">
        <ele>6</ele>
        <time>2023-11-01T13:51:03Z</time>
      </trkpt>
      <trkpt lat="47.18639" lon="-1.83647">
        <ele>9</ele>
        <time>2023-11-01T13:54:07Z</time>
      </trkpt>
      <trkpt lat="47.19117" lon="-1.8351">
        <ele>14</ele>
        <time>2023-11-01T14:04:57Z</time>
      </trkpt>
      <trkpt lat="47.19289" lon="-1.83394">
        <ele>20</ele>
        <time>2023-11-01T14:09:09Z</time>
      </trkpt>
      <trkpt lat="47.19225" lon="-1.83025">
        <ele>17</ele>
        <time>2023-11-01T14:14:55Z</time>
      </trkpt>
      <trkpt lat="47.19301" lon="-1.82682">
        <ele>15</ele>
        <time>2023-11-01T14:20:22Z</time>
      </trkpt>
      <trkpt lat="47.19362" lon="-1.82695">
        <ele>16</ele>
        <time>2023-11-01T14:21:44Z</time>
      </trkpt>
      <trkpt lat="47.19333" lon="-1.82373">
        <ele>17</ele>
        <time>2023-11-01T14:26:39Z</time>
      </trkpt>
      <trkpt lat="47.19382" lon="-1.82356">
        <ele>17</ele>
        <time>2023-11-01T14:27:46Z</time>
      </trkpt>
      <trkpt lat="47.19499" lon="-1.81871">
        <ele>14</ele>
        <time>2023-11-01T14:35:32Z</time>
      </trkpt>
      <trkpt lat="47.19406" lon="-1.81497">
        <ele>10</ele>
        <time>2023-11-01T14:41:34Z</time>
      </trkpt>
      <trkpt lat="47.19411" lon="-1.81124">
        <ele>8</ele>
        <time>2023-11-01T14:47:12Z</time>
      </trkpt>
      <trkpt lat="47.19341" lon="-1.80751">
        <ele>14</ele>
        <time>2023-11-01T14:53:03Z</time>
      </trkpt>
      <trkpt lat="47.1935" lon="-1.80596">
        <ele>12</ele>
        <time>2023-11-01T14:55:24Z</time>
      </trkpt>
      <trkpt lat="47.19283" lon="-1.80369">
        <ele>14</ele>
        <time>2023-11-01T14:59:08Z</time>
      </trkpt>
      <trkpt lat="47.18703" lon="-1.79725">
        <ele>22</ele>
        <time>2023-11-01T15:15:18Z</time>
      </trkpt>
      <trkpt lat="47.18726" lon="-1.79579">
        <ele>20</ele>
        <time>2023-11-01T15:17:34Z</time>
      </trkpt>
      <trkpt lat="47.18641" lon="-1.79609">
        <ele>22</ele>
        <time>2023-11-01T15:19:30Z</time>
      </trkpt>
      <trkpt lat="47.18641" lon="-1.79699">
        <ele>22</ele>
        <time>2023-11-01T15:20:52Z</time>
      </trkpt>
      <trkpt lat="47.1844" lon="-1.79588">
        <ele>23</ele>
        <time>2023-11-01T15:25:39Z</time>
      </trkpt>
      <trkpt lat="47.18172" lon="-1.79356">
        <ele>23</ele>
        <time>2023-11-01T15:32:33Z</time>
      </trkpt>
      <trkpt lat="47.1814" lon="-1.79304">
        <ele>20</ele>
        <time>2023-11-01T15:33:37Z</time>
      </trkpt>
      <trkpt lat="47.17854" lon="-1.79429">
        <ele>11</ele>
        <time>2023-11-01T15:40:15Z</time>
      </trkpt>
      <trkpt lat="47.17781" lon="-1.79536">
        <ele>5</ele>
        <time>2023-11-01T15:42:33Z</time>
      </trkpt>
      <trkpt lat="47.17691" lon="-1.79781">
        <ele>5</ele>
        <time>2023-11-01T15:46:45Z</time>
      </trkpt>
      <trkpt lat="47.1781" lon="-1.79931">
        <ele>5</ele>
        <time>2023-11-01T15:50:14Z</time>
      </trkpt>
      <trkpt lat="47.17793" lon="-1.80021">
        <ele>3</ele>
        <time>2023-11-01T15:51:39Z</time>
      </trkpt>
      <trkpt lat="47.17912" lon="-1.79987">
        <ele>9</ele>
        <time>2023-11-01T15:54:21Z</time>
      </trkpt>
      <trkpt lat="47.17927" lon="-1.80257">
        <ele>14</ele>
        <time>2023-11-01T15:58:27Z</time>
      </trkpt>
      <trkpt lat="47.17877" lon="-1.80339">
        <ele>14</ele>
        <time>2023-11-01T16:00:07Z</time>
      </trkpt>
      <trkpt lat="47.17886" lon="-1.80459">
        <ele>14</ele>
        <time>2023-11-01T16:01:56Z</time>
      </trkpt>
      <trkpt lat="47.18041" lon="-1.80502">
        <ele>11</ele>
        <time>2023-11-01T16:05:27Z</time>
      </trkpt>
      <trkpt lat="47.18172" lon="-1.80416">
        <ele>11</ele>
        <time>2023-11-01T16:08:38Z</time>
      </trkpt>
      <trkpt lat="47.18207" lon="-1.80274">
        <ele>15</ele>
        <time>2023-11-01T16:10:55Z</time>
      </trkpt>
      <trkpt lat="47.18268" lon="-1.80309">
        <ele>14</ele>
        <time>2023-11-01T16:12:22Z</time>
      </trkpt>
      <trkpt lat="47.18326" lon="-1.80566">
        <ele>14</ele>
        <time>2023-11-01T16:16:28Z</time>
      </trkpt>
      <trkpt lat="47.18309" lon="-1.80939">
        <ele>15</ele>
        <time>2023-11-01T16:22:07Z</time>
      </trkpt>
      <trkpt lat="47.18221" lon="-1.80974">
        <ele>14</ele>
        <time>2023-11-01T16:24:09Z</time>
      </trkpt>
      <trkpt lat="47.18178" lon="-1.81235">
        <ele>15</ele>
        <time>2023-11-01T16:28:12Z</time>
      </trkpt>
      <trkpt lat="47.18114" lon="-1.81579">
        <ele>11</ele>
        <time>2023-11-01T16:33:36Z</time>
      </trkpt>
    </trkseg>
  </trk>
  <trk>
    <name><![CDATA[CheixR_PierreTremblanteMartiniere_19.7km-12815416]]></name>
    <extensions>
      <line xmlns="http://www.topografix.com/GPX/gpx_style/0/2">
        <color>00FF00</color>
        <width>4</width>
      </line>
    </extensions>
    <trkseg>
      <trkpt lat="47.1814" lon="-1.81586">
        <ele>12</ele>
        <time>2023-11-01T12:54:44Z</time>
      </trkpt>
      <trkpt lat="47.18122" lon="-1.81603">
        <ele>11</ele>
        <time>2023-11-01T12:55:13Z</time>
      </trkpt>
      <trkpt lat="47.18119" lon="-1.81622">
        <ele>10</ele>
        <time>2023-11-01T12:55:30Z</time>
      </trkpt>
      <trkpt lat="47.18111" lon="-1.81632">
        <ele>9</ele>
        <time>2023-11-01T12:55:44Z</time>
      </trkpt>
      <trkpt lat="47.18075" lon="-1.81635">
        <ele>7</ele>
        <time>2023-11-01T12:56:32Z</time>
      </trkpt>
      <trkpt lat="47.18046" lon="-1.81651">
        <ele>4</ele>
        <time>2023-11-01T12:57:14Z</time>
      </trkpt>
      <trkpt lat="47.18047" lon="-1.81739">
        <ele>2</ele>
        <time>2023-11-01T12:58:34Z</time>
      </trkpt>
      <trkpt lat="47.18051" lon="-1.8178">
        <ele>2</ele>
        <time>2023-11-01T12:59:11Z</time>
      </trkpt>
      <trkpt lat="47.18056" lon="-1.81793">
        <ele>2</ele>
        <time>2023-11-01T12:59:25Z</time>
      </trkpt>
      <trkpt lat="47.18065" lon="-1.81801">
        <ele>3</ele>
        <time>2023-11-01T12:59:39Z</time>
      </trkpt>
      <trkpt lat="47.18065" lon="-1.81801">
        <ele>3</ele>
        <time>2023-11-01T12:59:39Z</time>
      </trkpt>
      <trkpt lat="47.18064" lon="-1.81809">
        <ele>3</ele>
        <time>2023-11-01T12:59:46Z</time>
      </trkpt>
      <trkpt lat="47.18066" lon="-1.81822">
        <ele>2</ele>
        <time>2023-11-01T12:59:58Z</time>
      </trkpt>
      <trkpt lat="47.18075" lon="-1.81825">
        <ele>3</ele>
        <time>2023-11-01T13:00:10Z</time>
      </trkpt>
      <trkpt lat="47.18075" lon="-1.81825">
        <ele>3</ele>
        <time>2023-11-01T13:00:11Z</time>
      </trkpt>
      <trkpt lat="47.18073" lon="-1.8184">
        <ele>3</ele>
        <time>2023-11-01T13:00:24Z</time>
      </trkpt>
      <trkpt lat="47.18077" lon="-1.8207">
        <ele>2</ele>
        <time>2023-11-01T13:03:53Z</time>
      </trkpt>
      <trkpt lat="47.18074" lon="-1.82179">
        <ele>1</ele>
        <time>2023-11-01T13:05:32Z</time>
      </trkpt>
      <trkpt lat="47.18081" lon="-1.82219">
        <ele>1</ele>
        <time>2023-11-01T13:06:10Z</time>
      </trkpt>
      <trkpt lat="47.18086" lon="-1.82228">
        <ele>1</ele>
        <time>2023-11-01T13:06:20Z</time>
      </trkpt>
      <trkpt lat="47.18136" lon="-1.82254">
        <ele>2</ele>
        <time>2023-11-01T13:07:31Z</time>
      </trkpt>
      <trkpt lat="47.18162" lon="-1.82257">
        <ele>3</ele>
        <time>2023-11-01T13:08:06Z</time>
      </trkpt>
      <trkpt lat="47.18196" lon="-1.82239">
        <ele>2</ele>
        <time>2023-11-01T13:08:54Z</time>
      </trkpt>
      <trkpt lat="47.18209" lon="-1.82227">
        <ele>3</ele>
        <time>2023-11-01T13:09:14Z</time>
      </trkpt>
      <trkpt lat="47.18229" lon="-1.82194">
        <ele>4</ele>
        <time>2023-11-01T13:09:54Z</time>
      </trkpt>
      <trkpt lat="47.18327" lon="-1.82241">
        <ele>3</ele>
        <time>2023-11-01T13:12:12Z</time>
      </trkpt>
      <trkpt lat="47.18333" lon="-1.82255">
        <ele>3</ele>
        <time>2023-11-01T13:12:27Z</time>
      </trkpt>
      <trkpt lat="47.18337" lon="-1.82288">
        <ele>4</ele>
        <time>2023-11-01T13:12:57Z</time>
      </trkpt>
      <trkpt lat="47.18335" lon="-1.82314">
        <ele>4</ele>
        <time>2023-11-01T13:13:21Z</time>
      </trkpt>
      <trkpt lat="47.18325" lon="-1.82334">
        <ele>4</ele>
        <time>2023-11-01T13:13:44Z</time>
      </trkpt>
      <trkpt lat="47.1828" lon="-1.82371">
        <ele>3</ele>
        <time>2023-11-01T13:14:52Z</time>
      </trkpt>
      <trkpt lat="47.18273" lon="-1.82384">
        <ele>3</ele>
        <time>2023-11-01T13:15:07Z</time>
      </trkpt>
      <trkpt lat="47.18272" lon="-1.82398">
        <ele>4</ele>
        <time>2023-11-01T13:15:20Z</time>
      </trkpt>
      <trkpt lat="47.18274" lon="-1.82413">
        <ele>4</ele>
        <time>2023-11-01T13:15:34Z</time>
      </trkpt>
      <trkpt lat="47.18284" lon="-1.82436">
        <ele>4</ele>
        <time>2023-11-01T13:15:59Z</time>
      </trkpt>
      <trkpt lat="47.18313" lon="-1.82472">
        <ele>4</ele>
        <time>2023-11-01T13:16:50Z</time>
      </trkpt>
      <trkpt lat="47.18313" lon="-1.82472">
        <ele>4</ele>
        <time>2023-11-01T13:16:50Z</time>
      </trkpt>
      <trkpt lat="47.18287" lon="-1.82503">
        <ele>3</ele>
        <time>2023-11-01T13:17:34Z</time>
      </trkpt>
      <trkpt lat="47.18277" lon="-1.82522">
        <ele>3</ele>
        <time>2023-11-01T13:17:56Z</time>
      </trkpt>
      <trkpt lat="47.18272" lon="-1.82544">
        <ele>3</ele>
        <time>2023-11-01T13:18:17Z</time>
      </trkpt>
      <trkpt lat="47.18269" lon="-1.82601">
        <ele>3</ele>
        <time>2023-11-01T13:19:09Z</time>
      </trkpt>
      <trkpt lat="47.18269" lon="-1.82601">
        <ele>3</ele>
        <time>2023-11-01T13:19:09Z</time>
      </trkpt>
      <trkpt lat="47.18273" lon="-1.82683">
        <ele>3</ele>
        <time>2023-11-01T13:20:23Z</time>
      </trkpt>
      <trkpt lat="47.18291" lon="-1.82729">
        <ele>3</ele>
        <time>2023-11-01T13:21:12Z</time>
      </trkpt>
      <trkpt lat="47.18302" lon="-1.82769">
        <ele>3</ele>
        <time>2023-11-01T13:21:51Z</time>
      </trkpt>
      <trkpt lat="47.1832" lon="-1.82802">
        <ele>4</ele>
        <time>2023-11-01T13:22:29Z</time>
      </trkpt>
      <trkpt lat="47.18339" lon="-1.82889">
        <ele>5</ele>
        <time>2023-11-01T13:23:52Z</time>
      </trkpt>
      <trkpt lat="47.18339" lon="-1.82889">
        <ele>5</ele>
        <time>2023-11-01T13:23:52Z</time>
      </trkpt>
      <trkpt lat="47.18308" lon="-1.82908">
        <ele>4</ele>
        <time>2023-11-01T13:24:37Z</time>
      </trkpt>
      <trkpt lat="47.18297" lon="-1.8293">
        <ele>4</ele>
        <time>2023-11-01T13:25:02Z</time>
      </trkpt>
      <trkpt lat="47.18281" lon="-1.82971">
        <ele>4</ele>
        <time>2023-11-01T13:25:44Z</time>
      </trkpt>
      <trkpt lat="47.18268" lon="-1.82988">
        <ele>3</ele>
        <time>2023-11-01T13:26:08Z</time>
      </trkpt>
      <trkpt lat="47.18247" lon="-1.82996">
        <ele>3</ele>
        <time>2023-11-01T13:26:37Z</time>
      </trkpt>
      <trkpt lat="47.18164" lon="-1.82998">
        <ele>4</ele>
        <time>2023-11-01T13:28:27Z</time>
      </trkpt>
      <trkpt lat="47.18144" lon="-1.83017">
        <ele>3</ele>
        <time>2023-11-01T13:28:59Z</time>
      </trkpt>
      <trkpt lat="47.18136" lon="-1.83048">
        <ele>2</ele>
        <time>2023-11-01T13:29:29Z</time>
      </trkpt>
      <trkpt lat="47.18136" lon="-1.83083">
        <ele>2</ele>
        <time>2023-11-01T13:30:01Z</time>
      </trkpt>
      <trkpt lat="47.18176" lon="-1.8323">
        <ele>2</ele>
        <time>2023-11-01T13:32:25Z</time>
      </trkpt>
      <trkpt lat="47.18243" lon="-1.83362">
        <ele>4</ele>
        <time>2023-11-01T13:34:54Z</time>
      </trkpt>
      <trkpt lat="47.18268" lon="-1.83386">
        <ele>4</ele>
        <time>2023-11-01T13:35:34Z</time>
      </trkpt>
      <trkpt lat="47.18302" lon="-1.83467">
        <ele>3</ele>
        <time>2023-11-01T13:37:00Z</time>
      </trkpt>
      <trkpt lat="47.18338" lon="-1.83515">
        <ele>3</ele>
        <time>2023-11-01T13:38:05Z</time>
      </trkpt>
      <trkpt lat="47.18359" lon="-1.83556">
        <ele>4</ele>
        <time>2023-11-01T13:38:52Z</time>
      </trkpt>
      <trkpt lat="47.18359" lon="-1.83556">
        <ele>4</ele>
        <time>2023-11-01T13:38:52Z</time>
      </trkpt>
      <trkpt lat="47.18341" lon="-1.83575">
        <ele>3</ele>
        <time>2023-11-01T13:39:21Z</time>
      </trkpt>
      <trkpt lat="47.18332" lon="-1.83593">
        <ele>3</ele>
        <time>2023-11-01T13:39:41Z</time>
      </trkpt>
      <trkpt lat="47.18328" lon="-1.83621">
        <ele>2</ele>
        <time>2023-11-01T13:40:07Z</time>
      </trkpt>
      <trkpt lat="47.1833" lon="-1.83645">
        <ele>2</ele>
        <time>2023-11-01T13:40:29Z</time>
      </trkpt>
      <trkpt lat="47.18341" lon="-1.83688">
        <ele>2</ele>
        <time>2023-11-01T13:41:11Z</time>
      </trkpt>
      <trkpt lat="47.18356" lon="-1.83724">
        <ele>2</ele>
        <time>2023-11-01T13:41:49Z</time>
      </trkpt>
      <trkpt lat="47.18412" lon="-1.83825">
        <ele>3</ele>
        <time>2023-11-01T13:43:47Z</time>
      </trkpt>
      <trkpt lat="47.18439" lon="-1.83857">
        <ele>3</ele>
        <time>2023-11-01T13:44:34Z</time>
      </trkpt>
      <trkpt lat="47.18474" lon="-1.83891">
        <ele>4</ele>
        <time>2023-11-01T13:45:30Z</time>
      </trkpt>
      <trkpt lat="47.18489" lon="-1.83896">
        <ele>4</ele>
        <time>2023-11-01T13:45:50Z</time>
      </trkpt>
      <trkpt lat="47.18502" lon="-1.83891">
        <ele>5</ele>
        <time>2023-11-01T13:46:08Z</time>
      </trkpt>
      <trkpt lat="47.18593" lon="-1.83807">
        <ele>6</ele>
        <time>2023-11-01T13:48:32Z</time>
      </trkpt>
      <trkpt lat="47.18612" lon="-1.83773">
        <ele>6</ele>
        <time>2023-11-01T13:49:11Z</time>
      </trkpt>
      <trkpt lat="47.18624" lon="-1.83733">
        <ele>6</ele>
        <time>2023-11-01T13:49:51Z</time>
      </trkpt>
      <trkpt lat="47.18623" lon="-1.8368">
        <ele>8</ele>
        <time>2023-11-01T13:50:39Z</time>
      </trkpt>
      <trkpt lat="47.18629" lon="-1.83656">
        <ele>8</ele>
        <time>2023-11-01T13:51:02Z</time>
      </trkpt>
      <trkpt lat="47.18643" lon="-1.83642">
        <ele>9</ele>
        <time>2023-11-01T13:51:25Z</time>
      </trkpt>
      <trkpt lat="47.18777" lon="-1.83604">
        <ele>11</ele>
        <time>2023-11-01T13:54:27Z</time>
      </trkpt>
      <trkpt lat="47.18828" lon="-1.83575">
        <ele>11</ele>
        <time>2023-11-01T13:55:40Z</time>
      </trkpt>
      <trkpt lat="47.18932" lon="-1.83549">
        <ele>11</ele>
        <time>2023-11-01T13:58:01Z</time>
      </trkpt>
      <trkpt lat="47.18993" lon="-1.83525">
        <ele>12</ele>
        <time>2023-11-01T13:59:25Z</time>
      </trkpt>
      <trkpt lat="47.19116" lon="-1.8349">
        <ele>15</ele>
        <time>2023-11-01T14:02:12Z</time>
      </trkpt>
      <trkpt lat="47.19116" lon="-1.8349">
        <ele>15</ele>
        <time>2023-11-01T14:02:12Z</time>
      </trkpt>
      <trkpt lat="47.19145" lon="-1.83477">
        <ele>15</ele>
        <time>2023-11-01T14:02:53Z</time>
      </trkpt>
      <trkpt lat="47.19156" lon="-1.83465">
        <ele>16</ele>
        <time>2023-11-01T14:03:11Z</time>
      </trkpt>
      <trkpt lat="47.19165" lon="-1.8348">
        <ele>16</ele>
        <time>2023-11-01T14:03:29Z</time>
      </trkpt>
      <trkpt lat="47.19293" lon="-1.83393">
        <ele>20</ele>
        <time>2023-11-01T14:06:37Z</time>
      </trkpt>
      <trkpt lat="47.19293" lon="-1.83393">
        <ele>20</ele>
        <time>2023-11-01T14:06:37Z</time>
      </trkpt>
      <trkpt lat="47.19278" lon="-1.83289">
        <ele>20</ele>
        <time>2023-11-01T14:08:14Z</time>
      </trkpt>
      <trkpt lat="47.19267" lon="-1.83181">
        <ele>20</ele>
        <time>2023-11-01T14:09:53Z</time>
      </trkpt>
      <trkpt lat="47.19237" lon="-1.83053">
        <ele>18</ele>
        <time>2023-11-01T14:11:56Z</time>
      </trkpt>
      <trkpt lat="47.19233" lon="-1.83011">
        <ele>18</ele>
        <time>2023-11-01T14:12:34Z</time>
      </trkpt>
      <trkpt lat="47.19233" lon="-1.82969">
        <ele>17</ele>
        <time>2023-11-01T14:13:12Z</time>
      </trkpt>
      <trkpt lat="47.19234" lon="-1.82939">
        <ele>17</ele>
        <time>2023-11-01T14:13:39Z</time>
      </trkpt>
      <trkpt lat="47.19239" lon="-1.82899">
        <ele>16</ele>
        <time>2023-11-01T14:14:16Z</time>
      </trkpt>
      <trkpt lat="47.19269" lon="-1.82816">
        <ele>16</ele>
        <time>2023-11-01T14:15:42Z</time>
      </trkpt>
      <trkpt lat="47.19304" lon="-1.82681">
        <ele>15</ele>
        <time>2023-11-01T14:17:53Z</time>
      </trkpt>
      <trkpt lat="47.19358" lon="-1.82705">
        <ele>16</ele>
        <time>2023-11-01T14:19:08Z</time>
      </trkpt>
      <trkpt lat="47.19358" lon="-1.82705">
        <ele>16</ele>
        <time>2023-11-01T14:19:08Z</time>
      </trkpt>
      <trkpt lat="47.19342" lon="-1.82541">
        <ele>17</ele>
        <time>2023-11-01T14:21:38Z</time>
      </trkpt>
      <trkpt lat="47.19343" lon="-1.82468">
        <ele>16</ele>
        <time>2023-11-01T14:22:44Z</time>
      </trkpt>
      <trkpt lat="47.19337" lon="-1.82418">
        <ele>17</ele>
        <time>2023-11-01T14:23:30Z</time>
      </trkpt>
      <trkpt lat="47.19339" lon="-1.82374">
        <ele>17</ele>
        <time>2023-11-01T14:24:10Z</time>
      </trkpt>
      <trkpt lat="47.19335" lon="-1.82361">
        <ele>17</ele>
        <time>2023-11-01T14:24:23Z</time>
      </trkpt>
      <trkpt lat="47.19335" lon="-1.82361">
        <ele>17</ele>
        <time>2023-11-01T14:24:23Z</time>
      </trkpt>
      <trkpt lat="47.19377" lon="-1.82353">
        <ele>17</ele>
        <time>2023-11-01T14:25:20Z</time>
      </trkpt>
      <trkpt lat="47.19394" lon="-1.82282">
        <ele>16</ele>
        <time>2023-11-01T14:26:28Z</time>
      </trkpt>
      <trkpt lat="47.19419" lon="-1.82221">
        <ele>16</ele>
        <time>2023-11-01T14:27:33Z</time>
      </trkpt>
      <trkpt lat="47.19427" lon="-1.8219">
        <ele>16</ele>
        <time>2023-11-01T14:28:03Z</time>
      </trkpt>
      <trkpt lat="47.19433" lon="-1.82167">
        <ele>16</ele>
        <time>2023-11-01T14:28:25Z</time>
      </trkpt>
      <trkpt lat="47.19446" lon="-1.82049">
        <ele>16</ele>
        <time>2023-11-01T14:30:13Z</time>
      </trkpt>
      <trkpt lat="47.19467" lon="-1.81984">
        <ele>15</ele>
        <time>2023-11-01T14:31:19Z</time>
      </trkpt>
      <trkpt lat="47.19467" lon="-1.81975">
        <ele>15</ele>
        <time>2023-11-01T14:31:27Z</time>
      </trkpt>
      <trkpt lat="47.19464" lon="-1.8195">
        <ele>14</ele>
        <time>2023-11-01T14:31:50Z</time>
      </trkpt>
      <trkpt lat="47.1947" lon="-1.81932">
        <ele>14</ele>
        <time>2023-11-01T14:32:08Z</time>
      </trkpt>
      <trkpt lat="47.1948" lon="-1.81898">
        <ele>14</ele>
        <time>2023-11-01T14:32:42Z</time>
      </trkpt>
      <trkpt lat="47.19488" lon="-1.81885">
        <ele>14</ele>
        <time>2023-11-01T14:32:58Z</time>
      </trkpt>
      <trkpt lat="47.19497" lon="-1.81879">
        <ele>14</ele>
        <time>2023-11-01T14:33:11Z</time>
      </trkpt>
      <trkpt lat="47.19672" lon="-1.82018">
        <ele>19</ele>
        <time>2023-11-01T14:37:36Z</time>
      </trkpt>
      <trkpt lat="47.1988" lon="-1.81778">
        <ele>14</ele>
        <time>2023-11-01T14:43:29Z</time>
      </trkpt>
      <trkpt lat="47.19949" lon="-1.81692">
        <ele>11</ele>
        <time>2023-11-01T14:45:29Z</time>
      </trkpt>
      <trkpt lat="47.20095" lon="-1.81763">
        <ele>14</ele>
        <time>2023-11-01T14:48:55Z</time>
      </trkpt>
      <trkpt lat="47.20119" lon="-1.81523">
        <ele>11</ele>
        <time>2023-11-01T14:52:35Z</time>
      </trkpt>
      <trkpt lat="47.20473" lon="-1.81345">
        <ele>3</ele>
        <time>2023-11-01T15:00:54Z</time>
      </trkpt>
      <trkpt lat="47.20449" lon="-1.81237">
        <ele>3</ele>
        <time>2023-11-01T15:02:37Z</time>
      </trkpt>
      <trkpt lat="47.20697" lon="-1.80991">
        <ele>3</ele>
        <time>2023-11-01T15:09:16Z</time>
      </trkpt>
      <trkpt lat="47.20604" lon="-1.78888">
        <ele>5</ele>
        <time>2023-11-01T15:41:06Z</time>
      </trkpt>
      <trkpt lat="47.20677" lon="-1.78573">
        <ele>8</ele>
        <time>2023-11-01T15:46:08Z</time>
      </trkpt>
      <trkpt lat="47.20622" lon="-1.78405">
        <ele>6</ele>
        <time>2023-11-01T15:48:57Z</time>
      </trkpt>
      <trkpt lat="47.20587" lon="-1.77747">
        <ele>14</ele>
        <time>2023-11-01T15:58:56Z</time>
      </trkpt>
      <trkpt lat="47.20577" lon="-1.77155">
        <ele>7</ele>
        <time>2023-11-01T16:07:53Z</time>
      </trkpt>
      <trkpt lat="47.20307" lon="-1.75516">
        <ele>5</ele>
        <time>2023-11-01T16:33:22Z</time>
      </trkpt>
      <trkpt lat="47.20154" lon="-1.75705">
        <ele>12</ele>
        <time>2023-11-01T16:37:48Z</time>
      </trkpt>
      <trkpt lat="47.20057" lon="-1.75991">
        <ele>12</ele>
        <time>2023-11-01T16:42:38Z</time>
      </trkpt>
      <trkpt lat="47.19838" lon="-1.762">
        <ele>17</ele>
        <time>2023-11-01T16:48:26Z</time>
      </trkpt>
      <trkpt lat="47.19883" lon="-1.76425">
        <ele>17</ele>
        <time>2023-11-01T16:51:59Z</time>
      </trkpt>
      <trkpt lat="47.19783" lon="-1.76848">
        <ele>14</ele>
        <time>2023-11-01T16:58:45Z</time>
      </trkpt>
      <trkpt lat="47.19474" lon="-1.772">
        <ele>17</ele>
        <time>2023-11-01T17:07:26Z</time>
      </trkpt>
      <trkpt lat="47.19318" lon="-1.77323">
        <ele>13</ele>
        <time>2023-11-01T17:11:23Z</time>
      </trkpt>
      <trkpt lat="47.19121" lon="-1.76889">
        <ele>19</ele>
        <time>2023-11-01T17:19:16Z</time>
      </trkpt>
      <trkpt lat="47.18971" lon="-1.77614">
        <ele>18</ele>
        <time>2023-11-01T17:30:43Z</time>
      </trkpt>
      <trkpt lat="47.18719" lon="-1.79759">
        <ele>22</ele>
        <time>2023-11-01T18:03:37Z</time>
      </trkpt>
      <trkpt lat="47.18719" lon="-1.79759">
        <ele>22</ele>
        <time>2023-11-01T18:03:37Z</time>
      </trkpt>
      <trkpt lat="47.18706" lon="-1.79625">
        <ele>21</ele>
        <time>2023-11-01T18:05:40Z</time>
      </trkpt>
      <trkpt lat="47.18724" lon="-1.79546">
        <ele>21</ele>
        <time>2023-11-01T18:06:56Z</time>
      </trkpt>
      <trkpt lat="47.1872" lon="-1.79534">
        <ele>21</ele>
        <time>2023-11-01T18:07:08Z</time>
      </trkpt>
      <trkpt lat="47.1872" lon="-1.79533">
        <ele>21</ele>
        <time>2023-11-01T18:07:09Z</time>
      </trkpt>
      <trkpt lat="47.1872" lon="-1.79533">
        <ele>21</ele>
        <time>2023-11-01T18:07:09Z</time>
      </trkpt>
      <trkpt lat="47.18715" lon="-1.79558">
        <ele>21</ele>
        <time>2023-11-01T18:07:32Z</time>
      </trkpt>
      <trkpt lat="47.18651" lon="-1.79569">
        <ele>22</ele>
        <time>2023-11-01T18:08:58Z</time>
      </trkpt>
      <trkpt lat="47.1864" lon="-1.79587">
        <ele>22</ele>
        <time>2023-11-01T18:09:20Z</time>
      </trkpt>
      <trkpt lat="47.18638" lon="-1.79619">
        <ele>22</ele>
        <time>2023-11-01T18:09:49Z</time>
      </trkpt>
      <trkpt lat="47.18644" lon="-1.7967">
        <ele>22</ele>
        <time>2023-11-01T18:10:36Z</time>
      </trkpt>
      <trkpt lat="47.1864" lon="-1.79683">
        <ele>22</ele>
        <time>2023-11-01T18:10:49Z</time>
      </trkpt>
      <trkpt lat="47.18601" lon="-1.79656">
        <ele>23</ele>
        <time>2023-11-01T18:11:47Z</time>
      </trkpt>
      <trkpt lat="47.18441" lon="-1.7958">
        <ele>23</ele>
        <time>2023-11-01T18:15:31Z</time>
      </trkpt>
      <trkpt lat="47.184" lon="-1.79554">
        <ele>23</ele>
        <time>2023-11-01T18:16:31Z</time>
      </trkpt>
      <trkpt lat="47.18286" lon="-1.79463">
        <ele>23</ele>
        <time>2023-11-01T18:19:24Z</time>
      </trkpt>
      <trkpt lat="47.18184" lon="-1.79353">
        <ele>23</ele>
        <time>2023-11-01T18:22:12Z</time>
      </trkpt>
      <trkpt lat="47.18168" lon="-1.79331">
        <ele>23</ele>
        <time>2023-11-01T18:22:42Z</time>
      </trkpt>
      <trkpt lat="47.18154" lon="-1.79341">
        <ele>22</ele>
        <time>2023-11-01T18:23:02Z</time>
      </trkpt>
      <trkpt lat="47.18142" lon="-1.79304">
        <ele>20</ele>
        <time>2023-11-01T18:23:40Z</time>
      </trkpt>
      <trkpt lat="47.18063" lon="-1.7935">
        <ele>16</ele>
        <time>2023-11-01T18:25:33Z</time>
      </trkpt>
      <trkpt lat="47.18001" lon="-1.79377">
        <ele>15</ele>
        <time>2023-11-01T18:26:59Z</time>
      </trkpt>
      <trkpt lat="47.17946" lon="-1.79376">
        <ele>13</ele>
        <time>2023-11-01T18:28:13Z</time>
      </trkpt>
      <trkpt lat="47.17851" lon="-1.79431">
        <ele>11</ele>
        <time>2023-11-01T18:30:29Z</time>
      </trkpt>
      <trkpt lat="47.17763" lon="-1.79559">
        <ele>4</ele>
        <time>2023-11-01T18:33:14Z</time>
      </trkpt>
      <trkpt lat="47.17742" lon="-1.79595">
        <ele>4</ele>
        <time>2023-11-01T18:33:57Z</time>
      </trkpt>
      <trkpt lat="47.1771" lon="-1.79684">
        <ele>5</ele>
        <time>2023-11-01T18:35:28Z</time>
      </trkpt>
      <trkpt lat="47.177" lon="-1.79732">
        <ele>5</ele>
        <time>2023-11-01T18:36:14Z</time>
      </trkpt>
      <trkpt lat="47.17697" lon="-1.79761">
        <ele>5</ele>
        <time>2023-11-01T18:36:41Z</time>
      </trkpt>
      <trkpt lat="47.17705" lon="-1.79795">
        <ele>5</ele>
        <time>2023-11-01T18:37:13Z</time>
      </trkpt>
      <trkpt lat="47.17705" lon="-1.79795">
        <ele>5</ele>
        <time>2023-11-01T18:37:13Z</time>
      </trkpt>
      <trkpt lat="47.17738" lon="-1.79847">
        <ele>5</ele>
        <time>2023-11-01T18:38:18Z</time>
      </trkpt>
      <trkpt lat="47.17758" lon="-1.79858">
        <ele>5</ele>
        <time>2023-11-01T18:38:46Z</time>
      </trkpt>
      <trkpt lat="47.17799" lon="-1.79916">
        <ele>5</ele>
        <time>2023-11-01T18:40:02Z</time>
      </trkpt>
      <trkpt lat="47.17807" lon="-1.79939">
        <ele>5</ele>
        <time>2023-11-01T18:40:26Z</time>
      </trkpt>
      <trkpt lat="47.17805" lon="-1.79952">
        <ele>5</ele>
        <time>2023-11-01T18:40:38Z</time>
      </trkpt>
      <trkpt lat="47.17798" lon="-1.79964">
        <ele>4</ele>
        <time>2023-11-01T18:40:52Z</time>
      </trkpt>
      <trkpt lat="47.17793" lon="-1.79997">
        <ele>3</ele>
        <time>2023-11-01T18:41:23Z</time>
      </trkpt>
      <trkpt lat="47.17795" lon="-1.80007">
        <ele>3</ele>
        <time>2023-11-01T18:41:32Z</time>
      </trkpt>
      <trkpt lat="47.178" lon="-1.80012">
        <ele>3</ele>
        <time>2023-11-01T18:41:40Z</time>
      </trkpt>
      <trkpt lat="47.17845" lon="-1.80007">
        <ele>6</ele>
        <time>2023-11-01T18:42:40Z</time>
      </trkpt>
      <trkpt lat="47.17908" lon="-1.79983">
        <ele>9</ele>
        <time>2023-11-01T18:44:07Z</time>
      </trkpt>
      <trkpt lat="47.17908" lon="-1.79983">
        <ele>9</ele>
        <time>2023-11-01T18:44:07Z</time>
      </trkpt>
      <trkpt lat="47.1792" lon="-1.80048">
        <ele>10</ele>
        <time>2023-11-01T18:45:08Z</time>
      </trkpt>
      <trkpt lat="47.17919" lon="-1.80077">
        <ele>11</ele>
        <time>2023-11-01T18:45:35Z</time>
      </trkpt>
      <trkpt lat="47.17915" lon="-1.80101">
        <ele>11</ele>
        <time>2023-11-01T18:45:57Z</time>
      </trkpt>
      <trkpt lat="47.17913" lon="-1.80133">
        <ele>11</ele>
        <time>2023-11-01T18:46:26Z</time>
      </trkpt>
      <trkpt lat="47.17921" lon="-1.80225">
        <ele>14</ele>
        <time>2023-11-01T18:47:50Z</time>
      </trkpt>
      <trkpt lat="47.17917" lon="-1.80275">
        <ele>14</ele>
        <time>2023-11-01T18:48:36Z</time>
      </trkpt>
      <trkpt lat="47.17917" lon="-1.80275">
        <ele>14</ele>
        <time>2023-11-01T18:48:36Z</time>
      </trkpt>
      <trkpt lat="47.17908" lon="-1.80298">
        <ele>14</ele>
        <time>2023-11-01T18:49:00Z</time>
      </trkpt>
      <trkpt lat="47.17892" lon="-1.80318">
        <ele>14</ele>
        <time>2023-11-01T18:49:28Z</time>
      </trkpt>
      <trkpt lat="47.17876" lon="-1.80338">
        <ele>14</ele>
        <time>2023-11-01T18:49:56Z</time>
      </trkpt>
      <trkpt lat="47.17868" lon="-1.80361">
        <ele>14</ele>
        <time>2023-11-01T18:50:20Z</time>
      </trkpt>
      <trkpt lat="47.17866" lon="-1.80379">
        <ele>14</ele>
        <time>2023-11-01T18:50:36Z</time>
      </trkpt>
      <trkpt lat="47.17868" lon="-1.80454">
        <ele>14</ele>
        <time>2023-11-01T18:51:44Z</time>
      </trkpt>
      <trkpt lat="47.17907" lon="-1.80451">
        <ele>13</ele>
        <time>2023-11-01T18:52:36Z</time>
      </trkpt>
      <trkpt lat="47.17938" lon="-1.80461">
        <ele>13</ele>
        <time>2023-11-01T18:53:19Z</time>
      </trkpt>
      <trkpt lat="47.17967" lon="-1.80481">
        <ele>12</ele>
        <time>2023-11-01T18:54:01Z</time>
      </trkpt>
      <trkpt lat="47.17988" lon="-1.80491">
        <ele>11</ele>
        <time>2023-11-01T18:54:31Z</time>
      </trkpt>
      <trkpt lat="47.1803" lon="-1.805">
        <ele>11</ele>
        <time>2023-11-01T18:55:28Z</time>
      </trkpt>
      <trkpt lat="47.18072" lon="-1.80498">
        <ele>11</ele>
        <time>2023-11-01T18:56:24Z</time>
      </trkpt>
      <trkpt lat="47.1809" lon="-1.80492">
        <ele>11</ele>
        <time>2023-11-01T18:56:48Z</time>
      </trkpt>
      <trkpt lat="47.18137" lon="-1.80448">
        <ele>11</ele>
        <time>2023-11-01T18:58:03Z</time>
      </trkpt>
      <trkpt lat="47.18154" lon="-1.80426">
        <ele>11</ele>
        <time>2023-11-01T18:58:33Z</time>
      </trkpt>
      <trkpt lat="47.18167" lon="-1.80402">
        <ele>12</ele>
        <time>2023-11-01T18:59:01Z</time>
      </trkpt>
      <trkpt lat="47.18194" lon="-1.80338">
        <ele>14</ele>
        <time>2023-11-01T19:00:09Z</time>
      </trkpt>
      <trkpt lat="47.18208" lon="-1.80268">
        <ele>15</ele>
        <time>2023-11-01T19:01:15Z</time>
      </trkpt>
      <trkpt lat="47.18257" lon="-1.80292">
        <ele>15</ele>
        <time>2023-11-01T19:02:24Z</time>
      </trkpt>
      <trkpt lat="47.18321" lon="-1.8053">
        <ele>14</ele>
        <time>2023-11-01T19:06:16Z</time>
      </trkpt>
      <trkpt lat="47.18328" lon="-1.806">
        <ele>15</ele>
        <time>2023-11-01T19:07:20Z</time>
      </trkpt>
      <trkpt lat="47.18328" lon="-1.80727">
        <ele>16</ele>
        <time>2023-11-01T19:09:16Z</time>
      </trkpt>
      <trkpt lat="47.18293" lon="-1.80783">
        <ele>16</ele>
        <time>2023-11-01T19:10:25Z</time>
      </trkpt>
      <trkpt lat="47.18313" lon="-1.80796">
        <ele>16</ele>
        <time>2023-11-01T19:10:54Z</time>
      </trkpt>
      <trkpt lat="47.18317" lon="-1.80804">
        <ele>16</ele>
        <time>2023-11-01T19:11:03Z</time>
      </trkpt>
      <trkpt lat="47.18317" lon="-1.80882">
        <ele>16</ele>
        <time>2023-11-01T19:12:14Z</time>
      </trkpt>
      <trkpt lat="47.18313" lon="-1.80914">
        <ele>16</ele>
        <time>2023-11-01T19:12:43Z</time>
      </trkpt>
      <trkpt lat="47.18295" lon="-1.80972">
        <ele>15</ele>
        <time>2023-11-01T19:13:41Z</time>
      </trkpt>
      <trkpt lat="47.18297" lon="-1.80991">
        <ele>16</ele>
        <time>2023-11-01T19:13:58Z</time>
      </trkpt>
      <trkpt lat="47.18331" lon="-1.81015">
        <ele>16</ele>
        <time>2023-11-01T19:14:49Z</time>
      </trkpt>
      <trkpt lat="47.18371" lon="-1.81027">
        <ele>17</ele>
        <time>2023-11-01T19:15:43Z</time>
      </trkpt>
      <trkpt lat="47.18373" lon="-1.81047">
        <ele>17</ele>
        <time>2023-11-01T19:16:01Z</time>
      </trkpt>
      <trkpt lat="47.18369" lon="-1.81096">
        <ele>17</ele>
        <time>2023-11-01T19:16:46Z</time>
      </trkpt>
      <trkpt lat="47.18327" lon="-1.81222">
        <ele>18</ele>
        <time>2023-11-01T19:18:53Z</time>
      </trkpt>
      <trkpt lat="47.18263" lon="-1.81314">
        <ele>16</ele>
        <time>2023-11-01T19:20:53Z</time>
      </trkpt>
      <trkpt lat="47.18238" lon="-1.81362">
        <ele>16</ele>
        <time>2023-11-01T19:21:48Z</time>
      </trkpt>
      <trkpt lat="47.1823" lon="-1.81357">
        <ele>16</ele>
        <time>2023-11-01T19:21:59Z</time>
      </trkpt>
      <trkpt lat="47.18216" lon="-1.81333">
        <ele>16</ele>
        <time>2023-11-01T19:22:28Z</time>
      </trkpt>
      <trkpt lat="47.18208" lon="-1.81336">
        <ele>16</ele>
        <time>2023-11-01T19:22:39Z</time>
      </trkpt>
      <trkpt lat="47.18204" lon="-1.81343">
        <ele>15</ele>
        <time>2023-11-01T19:22:47Z</time>
      </trkpt>
      <trkpt lat="47.182" lon="-1.81363">
        <ele>16</ele>
        <time>2023-11-01T19:23:06Z</time>
      </trkpt>
      <trkpt lat="47.1819" lon="-1.81381">
        <ele>15</ele>
        <time>2023-11-01T19:23:27Z</time>
      </trkpt>
      <trkpt lat="47.18186" lon="-1.81398">
        <ele>15</ele>
        <time>2023-11-01T19:23:44Z</time>
      </trkpt>
      <trkpt lat="47.18171" lon="-1.81505">
        <ele>15</ele>
        <time>2023-11-01T19:25:23Z</time>
      </trkpt>
      <trkpt lat="47.1817" lon="-1.81522">
        <ele>15</ele>
        <time>2023-11-01T19:25:38Z</time>
      </trkpt>
      <trkpt lat="47.18139" lon="-1.81494">
        <ele>14</ele>
        <time>2023-11-01T19:26:27Z</time>
      </trkpt>
      <trkpt lat="47.18139" lon="-1.81494">
        <ele>14</ele>
        <time>2023-11-01T19:26:27Z</time>
      </trkpt>
      <trkpt lat="47.18137" lon="-1.81555">
        <ele>13</ele>
        <time>2023-11-01T19:27:22Z</time>
      </trkpt>
      <trkpt lat="47.1814" lon="-1.81586">
        <ele>12</ele>
        <time>2023-11-01T19:27:51Z</time>
      </trkpt>
    </trkseg>
  </trk>
</gpx>